Time;durP1;ratioP1;P1;durP2;ratioP2;P2;SDS_P1;SDS_P2;PMS_P1;PMS_P2;Temp;Humidity;BMP_temperature;BMP_pressure;BME280_temperature;BME280_humidity;BME280_pressure;Samples;Min_cycle;Max_cycle;Signal;HPM_P1;HPM_P2
2022/03/31 00:01:03;;;;;;;;;;;;;;;;;;6035194;23;19921;-85
2022/03/31 00:03:29;;;;;;;;;;;;;;;;;;6114810;23;20408;-84
2022/03/31 00:05:55;;;;;;;;;;;;;;;;;;6091195;23;19921;-84
2022/03/31 00:08:24;;;;;;;;;;;;;;;;;;6142496;23;19979;-84
2022/03/31 00:10:50;;;;;;;;;;;;;;;;;;6120195;23;19928;-84
2022/03/31 00:13:18;;;;;;;;;;;;;;;;;;6141542;23;19980;-84
2022/03/31 00:16:05;;;;;;;;;;;;;;;;;;6089837;23;19976;-84
2022/03/31 00:18:33;;;;;;;;;;;;;;;;;;6115310;23;19924;-85
2022/03/31 00:21:15;;;;;;;;;;;;;;;;;;6142974;23;19955;-84
2022/03/31 00:23:42;;;;;;;;;;;;;;;;;;6094989;23;20313;-84
2022/03/31 00:26:13;;;;;;;;;;;;;;;;;;6119038;23;20512;-86
2022/03/31 00:28:41;;;;;;;;;;;;;;;;;;6119669;23;20281;-84
2022/03/31 00:31:08;;;;;;;;;;;;;;;;;;6118666;23;19959;-84
2022/03/31 00:33:34;;;;;;;;;;;;;;;;;;6144358;23;20338;-84
2022/03/31 00:36:04;;;;;;;;;;;;;;;;;;6144525;23;19927;-84
2022/03/31 00:38:30;;;;;;;;;;;;;;;;;;6120010;23;19952;-85
2022/03/31 00:40:57;;;;;;;;;;;;;;;;;;6118953;23;19991;-84
2022/03/31 00:43:24;;;;;;;;;;;;;;;;;;6119782;23;19917;-85
2022/03/31 00:46:10;;;;;;;;;;;;;;;;;;6143079;23;20330;-84
2022/03/31 00:48:37;;;;;;;;;;;;;;;;;;6145079;23;19916;-84
2022/03/31 00:51:05;;;;;;;;;;;;;;;;;;6120850;23;19964;-85
2022/03/31 00:53:32;;;;;;;;;;;;;;;;;;6121494;23;19960;-85
2022/03/31 00:56:00;;;;;;;;;;;;;;;;;;6121171;23;19917;-84
2022/03/31 00:58:27;;;;;;;;;;;;;;;;;;6121646;23;19932;-84
2022/03/31 01:00:54;;;;;;;;;;;;;;;;;;6119326;23;19925;-85
2022/03/31 01:03:21;;;;;;;;;;;;;;;;;;6118904;23;20373;-85
2022/03/31 01:05:49;;;;;;;;;;;;;;;;;;6125580;23;19927;-85
2022/03/31 01:08:16;;;;;;;;;;;;;;;;;;6173656;23;19920;-84
2022/03/31 01:10:43;;;;;;;;;;;;;;;;;;6175262;23;19920;-84
2022/03/31 01:13:10;;;;;;;;;;;;;;;;;;6174652;23;19924;-85
2022/03/31 01:15:37;;;;;;;;;;;;;;;;;;6175638;23;19927;-84
2022/03/31 01:18:05;;;;;;;;;;;;;;;;;;6179487;23;19924;-84
2022/03/31 01:20:33;;;;;;;;;;;;;;;;;;6181319;23;20222;-84
2022/03/31 01:23:01;;;;;;;;;;;;;;;;;;6179237;23;19926;-84
2022/03/31 01:25:46;;;;;;;;;;;;;;;;;;6208184;23;19922;-84
2022/03/31 01:28:13;;;;;;;;;;;;;;;;;;6180014;23;19919;-84
2022/03/31 01:30:39;;;;;;;;;;;;;;;;;;6179676;23;19951;-84
2022/03/31 01:33:14;;;;;;;;;;;;;;;;;;6179101;23;19975;-84
2022/03/31 01:35:41;;;;;;;;;;;;;;;;;;6180063;23;19915;-84
2022/03/31 01:38:07;;;;;;;;;;;;;;;;;;6178798;23;20022;-84
2022/03/31 01:40:35;;;;;;;;;;;;;;;;;;6179878;23;19920;-85
2022/03/31 01:43:02;;;;;;;;;;;;;;;;;;6180169;23;19923;-84
2022/03/31 01:45:44;;;;;;;;;;;;;;;;;;6143243;23;19921;-85
2022/03/31 01:48:29;;;;;;;;;;;;;;;;;;6028473;23;20005;-84
2022/03/31 01:51:16;;;;;;;;;;;;;;;;;;6031556;23;20252;-85
2022/03/31 01:53:43;;;;;;;;;;;;;;;;;;6030750;23;19930;-85
2022/03/31 01:56:11;;;;;;;;;;;;;;;;;;6030992;23;19925;-85
2022/03/31 01:58:38;;;;;;;;;;;;;;;;;;6032266;23;19944;-85
2022/03/31 02:01:06;;;;;;;;;;;;;;;;;;6031553;23;19921;-85
2022/03/31 02:03:34;;;;;;;;;;;;;;;;;;6031642;23;20016;-85
2022/03/31 02:06:01;;;;;;;;;;;;;;;;;;6032858;23;20634;-85
2022/03/31 02:08:29;;;;;;;;;;;;;;;;;;6031850;23;19992;-85
2022/03/31 02:10:56;;;;;;;;;;;;;;;;;;6032206;23;19925;-85
2022/03/31 02:13:23;;;;;;;;;;;;;;;;;;6055832;23;19932;-85
2022/03/31 02:15:49;;;;;;;;;;;;;;;;;;6039224;23;20311;-85
2022/03/31 02:18:21;;;;;;;;;;;;;;;;;;6111519;23;20316;-85
2022/03/31 02:20:48;;;;;;;;;;;;;;;;;;6117690;23;19992;-85
2022/03/31 02:23:25;;;;;;;;;;;;;;;;;;6141989;23;19916;-85
2022/03/31 02:25:58;;;;;;;;;;;;;;;;;;6118480;23;19955;-85
2022/03/31 02:28:25;;;;;;;;;;;;;;;;;;6119420;23;19955;-85
2022/03/31 02:30:52;;;;;;;;;;;;;;;;;;6119783;23;19921;-84
2022/03/31 02:33:20;;;;;;;;;;;;;;;;;;6119359;23;19921;-84
2022/03/31 02:35:47;;;;;;;;;;;;;;;;;;6118985;23;20405;-85
2022/03/31 02:38:14;;;;;;;;;;;;;;;;;;6118868;23;19925;-84
2022/03/31 02:40:42;;;;;;;;;;;;;;;;;;6119775;23;20000;-84
2022/03/31 02:43:28;;;;;;;;;;;;;;;;;;6154434;23;19919;-85
2022/03/31 02:45:55;;;;;;;;;;;;;;;;;;6127069;23;19924;-84
2022/03/31 02:48:22;;;;;;;;;;;;;;;;;;6177408;23;19921;-85
2022/03/31 02:50:50;;;;;;;;;;;;;;;;;;6127289;23;20759;-84
2022/03/31 02:56:02;;;;;;;;;;;;;;;;;;6151718;23;19920;-85
2022/03/31 02:58:29;;;;;;;;;;;;;;;;;;6153175;23;20615;-84
2022/03/31 03:00:56;;;;;;;;;;;;;;;;;;6152052;23;19924;-84
2022/03/31 03:03:23;;;;;;;;;;;;;;;;;;6127414;23;20420;-84
2022/03/31 03:05:51;;;;;;;;;;;;;;;;;;6126916;23;19927;-85
2022/03/31 03:08:23;;;;;;;;;;;;;;;;;;6179083;23;19963;-84
2022/03/31 03:10:52;;;;;;;;;;;;;;;;;;6152271;23;19975;-84
2022/03/31 03:13:20;;;;;;;;;;;;;;;;;;6151650;23;20356;-85
2022/03/31 03:15:48;;;;;;;;;;;;;;;;;;6126402;23;19920;-84
2022/03/31 03:18:16;;;;;;;;;;;;;;;;;;6164726;23;19924;-84
2022/03/31 03:20:43;;;;;;;;;;;;;;;;;;6180704;23;19923;-84
2022/03/31 03:23:11;;;;;;;;;;;;;;;;;;6180937;23;19920;-85
2022/03/31 03:25:38;;;;;;;;;;;;;;;;;;6180529;23;19927;-85
2022/03/31 03:28:05;;;;;;;;;;;;;;;;;;6181369;23;19924;-84
2022/03/31 03:30:32;;;;;;;;;;;;;;;;;;6180710;23;19920;-84
2022/03/31 03:32:59;;;;;;;;;;;;;;;;;;6180663;23;19931;-84
2022/03/31 03:35:26;;;;;;;;;;;;;;;;;;6178963;23;20320;-84
2022/03/31 03:37:55;;;;;;;;;;;;;;;;;;6179294;23;19955;-84
2022/03/31 03:40:25;;;;;;;;;;;;;;;;;;6180696;23;20234;-84
2022/03/31 03:42:55;;;;;;;;;;;;;;;;;;6180407;23;19927;-84
2022/03/31 03:45:22;;;;;;;;;;;;;;;;;;6181504;23;19955;-84
2022/03/31 03:47:49;;;;;;;;;;;;;;;;;;6181379;23;19920;-85
2022/03/31 03:50:16;;;;;;;;;;;;;;;;;;6179978;23;19966;-84
2022/03/31 03:52:44;;;;;;;;;;;;;;;;;;6178601;23;19970;-84
2022/03/31 03:55:14;;;;;;;;;;;;;;;;;;6178298;23;19920;-84
2022/03/31 03:57:41;;;;;;;;;;;;;;;;;;6178238;23;19962;-84
2022/03/31 04:00:09;;;;;;;;;;;;;;;;;;6179059;23;19920;-84
2022/03/31 04:02:35;;;;;;;;;;;;;;;;;;6180163;23;19920;-84
2022/03/31 04:05:09;;;;;;;;;;;;;;;;;;6179557;23;19923;-84
2022/03/31 04:07:36;;;;;;;;;;;;;;;;;;6179589;23;19920;-84
2022/03/31 04:10:03;;;;;;;;;;;;;;;;;;6181991;23;19965;-84
2022/03/31 04:12:30;;;;;;;;;;;;;;;;;;6180443;23;19916;-84
2022/03/31 04:14:58;;;;;;;;;;;;;;;;;;6180682;23;19919;-84
2022/03/31 04:17:26;;;;;;;;;;;;;;;;;;6174413;23;19924;-84
2022/03/31 04:19:53;;;;;;;;;;;;;;;;;;6175727;23;19916;-84
2022/03/31 04:22:21;;;;;;;;;;;;;;;;;;6173830;23;19920;-84
2022/03/31 04:24:49;;;;;;;;;;;;;;;;;;6174934;23;19942;-84
2022/03/31 04:27:16;;;;;;;;;;;;;;;;;;6173310;23;19916;-85
2022/03/31 04:29:42;;;;;;;;;;;;;;;;;;6175680;23;19994;-85
2022/03/31 04:32:28;;;;;;;;;;;;;;;;;;6194978;23;19920;-84
2022/03/31 04:34:56;;;;;;;;;;;;;;;;;;6176421;23;20324;-84
2022/03/31 04:37:23;;;;;;;;;;;;;;;;;;6175510;23;19920;-85
2022/03/31 04:39:50;;;;;;;;;;;;;;;;;;6177922;23;20314;-84
2022/03/31 04:42:17;;;;;;;;;;;;;;;;;;6177099;23;19923;-85
2022/03/31 04:44:44;;;;;;;;;;;;;;;;;;6176314;23;19931;-85
2022/03/31 04:47:11;;;;;;;;;;;;;;;;;;6173799;23;20792;-84
2022/03/31 04:49:48;;;;;;;;;;;;;;;;;;6178302;23;19927;-85
2022/03/31 04:52:15;;;;;;;;;;;;;;;;;;6175201;23;19958;-84
2022/03/31 04:54:46;;;;;;;;;;;;;;;;;;6173782;23;19931;-84
2022/03/31 04:57:16;;;;;;;;;;;;;;;;;;6173993;23;19920;-84
2022/03/31 04:59:44;;;;;;;;;;;;;;;;;;6174650;23;19999;-84
2022/03/31 05:02:14;;;;;;;;;;;;;;;;;;6198064;23;20031;-84
2022/03/31 05:04:41;;;;;;;;;;;;;;;;;;6173393;23;20226;-84
2022/03/31 05:07:08;;;;;;;;;;;;;;;;;;6173454;23;19921;-84
2022/03/31 05:09:35;;;;;;;;;;;;;;;;;;6172533;23;19928;-85
2022/03/31 05:12:02;;;;;;;;;;;;;;;;;;6173491;23;19920;-86
2022/03/31 05:14:49;;;;;;;;;;;;;;;;;;6147070;23;19920;-86
2022/03/31 05:17:17;;;;;;;;;;;;;;;;;;6116072;23;19920;-86
2022/03/31 05:19:44;;;;;;;;;;;;;;;;;;6097138;23;19932;-86
2022/03/31 05:22:10;;;;;;;;;;;;;;;;;;6093704;23;19957;-85
2022/03/31 05:24:37;;;;;;;;;;;;;;;;;;6119024;23;19983;-86
2022/03/31 05:27:04;;;;;;;;;;;;;;;;;;6095188;23;19924;-86
2022/03/31 05:29:31;;;;;;;;;;;;;;;;;;6117137;23;19995;-86
2022/03/31 05:31:59;;;;;;;;;;;;;;;;;;6117649;23;20675;-87
2022/03/31 05:34:40;;;;;;;;;;;;;;;;;;6142399;23;19947;-85
2022/03/31 05:37:07;;;;;;;;;;;;;;;;;;6138530;23;20353;-86
2022/03/31 05:39:34;;;;;;;;;;;;;;;;;;6118990;23;19970;-86
2022/03/31 05:42:02;;;;;;;;;;;;;;;;;;6095428;23;19995;-86
2022/03/31 05:44:30;;;;;;;;;;;;;;;;;;6120226;23;19960;-85
2022/03/31 05:46:56;;;;;;;;;;;;;;;;;;6095466;23;19923;-86
2022/03/31 05:49:22;;;;;;;;;;;;;;;;;;6120421;23;19987;-86
2022/03/31 05:51:49;;;;;;;;;;;;;;;;;;6119940;23;19927;-86
2022/03/31 05:54:19;;;;;;;;;;;;;;;;;;6121808;23;19958;-85
2022/03/31 05:56:46;;;;;;;;;;;;;;;;;;6095949;23;19927;-86
2022/03/31 05:59:27;;;;;;;;;;;;;;;;;;6078794;23;19940;-85
2022/03/31 06:01:54;;;;;;;;;;;;;;;;;;6063191;23;20450;-86
2022/03/31 06:04:22;;;;;;;;;;;;;;;;;;6062943;23;19925;-86
2022/03/31 06:06:48;;;;;;;;;;;;;;;;;;6062961;23;19917;-86
2022/03/31 06:09:15;;;;;;;;;;;;;;;;;;6063450;23;19937;-86
2022/03/31 06:11:42;;;;;;;;;;;;;;;;;;6063044;23;19917;-85
2022/03/31 06:14:09;;;;;;;;;;;;;;;;;;6061401;23;20577;-85
2022/03/31 06:16:55;;;;;;;;;;;;;;;;;;6088431;23;20010;-86
2022/03/31 06:19:22;;;;;;;;;;;;;;;;;;6076042;23;20003;-86
2022/03/31 06:21:48;;;;;;;;;;;;;;;;;;6093322;23;19921;-85
2022/03/31 06:24:14;;;;;;;;;;;;;;;;;;6122312;23;20015;-85
2022/03/31 06:26:41;;;;;;;;;;;;;;;;;;6123429;23;20305;-85
2022/03/31 06:29:09;;;;;;;;;;;;;;;;;;6123502;23;20369;-85
2022/03/31 06:31:38;;;;;;;;;;;;;;;;;;6148461;23;19991;-85
2022/03/31 06:34:03;;;;;;;;;;;;;;;;;;6150311;23;19999;-85
2022/03/31 06:36:31;;;;;;;;;;;;;;;;;;6148748;23;19971;-86
2022/03/31 06:38:58;;;;;;;;;;;;;;;;;;6149462;23;19967;-86
2022/03/31 06:41:25;;;;;;;;;;;;;;;;;;6147854;23;20594;-85
2022/03/31 06:43:53;;;;;;;;;;;;;;;;;;6147909;23;20246;-85
2022/03/31 06:46:20;;;;;;;;;;;;;;;;;;6148944;23;19917;-85
2022/03/31 06:48:47;;;;;;;;;;;;;;;;;;6149619;23;20402;-85
2022/03/31 06:51:14;;;;;;;;;;;;;;;;;;6149229;23;19924;-86
2022/03/31 06:53:41;;;;;;;;;;;;;;;;;;6150207;23;20058;-86
2022/03/31 06:56:08;;;;;;;;;;;;;;;;;;6148852;23;19960;-85
2022/03/31 06:58:36;;;;;;;;;;;;;;;;;;6149231;23;20353;-85
2022/03/31 07:01:02;;;;;;;;;;;;;;;;;;6148897;23;20059;-86
2022/03/31 07:03:48;;;;;;;;;;;;;;;;;;6170948;23;20388;-86
2022/03/31 07:06:29;;;;;;;;;;;;;;;;;;6089169;23;19917;-86
2022/03/31 07:08:56;;;;;;;;;;;;;;;;;;6065638;23;19917;-86
2022/03/31 07:11:23;;;;;;;;;;;;;;;;;;6064899;23;20067;-86
2022/03/31 07:13:50;;;;;;;;;;;;;;;;;;6089676;23;19921;-85
2022/03/31 07:16:32;;;;;;;;;;;;;;;;;;6088991;23;19998;-86
2022/03/31 07:19:03;;;;;;;;;;;;;;;;;;6085540;23;19924;-86
2022/03/31 07:21:30;;;;;;;;;;;;;;;;;;6146758;23;19948;-86
2022/03/31 07:23:57;;;;;;;;;;;;;;;;;;6123728;23;19921;-85
2022/03/31 07:26:24;;;;;;;;;;;;;;;;;;6098364;23;19925;-86
2022/03/31 07:28:51;;;;;;;;;;;;;;;;;;6123748;23;20353;-85
2022/03/31 07:31:18;;;;;;;;;;;;;;;;;;6123919;23;19921;-85
2022/03/31 07:33:45;;;;;;;;;;;;;;;;;;6125313;23;19924;-85
2022/03/31 07:36:13;;;;;;;;;;;;;;;;;;6124362;23;20277;-85
2022/03/31 07:38:41;;;;;;;;;;;;;;;;;;6160022;23;19915;-86
2022/03/31 07:41:08;;;;;;;;;;;;;;;;;;6185940;23;19920;-86
2022/03/31 07:43:35;;;;;;;;;;;;;;;;;;6185502;23;19920;-86
2022/03/31 07:46:02;;;;;;;;;;;;;;;;;;6185902;23;19920;-85
2022/03/31 07:48:29;;;;;;;;;;;;;;;;;;6185491;23;19916;-86
2022/03/31 07:50:58;;;;;;;;;;;;;;;;;;6185489;23;19920;-85
2022/03/31 07:53:24;;;;;;;;;;;;;;;;;;6185103;23;19999;-85
2022/03/31 07:55:51;;;;;;;;;;;;;;;;;;6186146;23;19955;-85
2022/03/31 07:58:19;;;;;;;;;;;;;;;;;;6185706;23;19919;-85
2022/03/31 08:00:50;;;;;;;;;;;;;;;;;;6212798;23;19920;-85
2022/03/31 08:03:18;;;;;;;;;;;;;;;;;;6185648;23;20337;-85
2022/03/31 08:05:45;;;;;;;;;;;;;;;;;;6185353;23;19916;-85
2022/03/31 08:08:12;;;;;;;;;;;;;;;;;;6185517;23;19922;-85
2022/03/31 08:10:40;;;;;;;;;;;;;;;;;;6185537;23;19951;-85
2022/03/31 08:13:08;;;;;;;;;;;;;;;;;;6185262;23;19924;-85
2022/03/31 08:15:35;;;;;;;;;;;;;;;;;;6186080;23;19974;-85
2022/03/31 08:18:02;;;;;;;;;;;;;;;;;;6185742;23;19916;-86
2022/03/31 08:20:30;;;;;;;;;;;;;;;;;;6185610;23;19927;-85
2022/03/31 08:22:57;;;;;;;;;;;;;;;;;;6185591;23;19920;-85
2022/03/31 08:25:24;;;;;;;;;;;;;;;;;;6184826;23;19923;-86
2022/03/31 08:27:51;;;;;;;;;;;;;;;;;;6185685;23;20333;-85
2022/03/31 08:30:38;;;;;;;;;;;;;;;;;;6211813;23;19994;-85
2022/03/31 08:33:04;;;;;;;;;;;;;;;;;;6184914;23;20027;-85
2022/03/31 08:35:31;;;;;;;;;;;;;;;;;;6185862;23;19947;-85
2022/03/31 08:37:57;;;;;;;;;;;;;;;;;;6185190;23;19916;-85
2022/03/31 08:40:24;;;;;;;;;;;;;;;;;;6184240;23;19926;-85
2022/03/31 08:42:51;;;;;;;;;;;;;;;;;;6184051;23;19955;-85
2022/03/31 08:45:22;;;;;;;;;;;;;;;;;;6184216;23;19923;-86
2022/03/31 08:47:49;;;;;;;;;;;;;;;;;;6185337;23;19920;-85
2022/03/31 08:50:16;;;;;;;;;;;;;;;;;;6184965;23;19999;-86
2022/03/31 08:52:43;;;;;;;;;;;;;;;;;;6185008;23;19924;-86
2022/03/31 08:55:12;;;;;;;;;;;;;;;;;;6184262;23;20399;-85
2022/03/31 08:57:39;;;;;;;;;;;;;;;;;;6185278;23;19916;-85
2022/03/31 09:00:07;;;;;;;;;;;;;;;;;;6184223;23;19962;-85
2022/03/31 09:02:34;;;;;;;;;;;;;;;;;;6185234;23;19939;-86
2022/03/31 09:05:01;;;;;;;;;;;;;;;;;;6184945;23;19947;-86
2022/03/31 09:07:30;;;;;;;;;;;;;;;;;;6211824;23;19919;-86
2022/03/31 09:09:59;;;;;;;;;;;;;;;;;;6209457;23;20134;-85
2022/03/31 09:12:27;;;;;;;;;;;;;;;;;;6184899;23;19919;-85
2022/03/31 09:15:10;;;;;;;;;;;;;;;;;;6211653;23;20686;-85
2022/03/31 09:17:37;;;;;;;;;;;;;;;;;;6184964;23;19966;-85
2022/03/31 09:20:08;;;;;;;;;;;;;;;;;;6159038;23;19920;-85
2022/03/31 09:22:35;;;;;;;;;;;;;;;;;;6185756;23;19916;-85
2022/03/31 09:25:02;;;;;;;;;;;;;;;;;;6210915;23;19955;-85
2022/03/31 09:27:29;;;;;;;;;;;;;;;;;;6184916;23;19916;-85
2022/03/31 09:29:56;;;;;;;;;;;;;;;;;;6184752;23;20347;-85
2022/03/31 09:32:22;;;;;;;;;;;;;;;;;;6184323;23;20052;-86
2022/03/31 09:34:56;;;;;;;;;;;;;;;;;;6184224;23;19986;-86
2022/03/31 09:37:22;;;;;;;;;;;;;;;;;;6184649;23;20751;-86
2022/03/31 09:39:52;;;;;;;;;;;;;;;;;;6211852;23;19927;-85
2022/03/31 09:42:19;;;;;;;;;;;;;;;;;;6184713;23;20394;-86
2022/03/31 09:44:47;;;;;;;;;;;;;;;;;;6184359;23;19970;-86
2022/03/31 09:47:14;;;;;;;;;;;;;;;;;;6184402;23;19931;-86
2022/03/31 09:49:41;;;;;;;;;;;;;;;;;;6183919;23;20253;-86
2022/03/31 09:52:10;;;;;;;;;;;;;;;;;;6184250;23;20091;-86
2022/03/31 09:54:37;;;;;;;;;;;;;;;;;;6184128;23;20321;-85
2022/03/31 09:57:07;;;;;;;;;;;;;;;;;;6184038;23;19973;-85
2022/03/31 09:59:35;;;;;;;;;;;;;;;;;;6184012;23;19995;-86
2022/03/31 10:02:02;;;;;;;;;;;;;;;;;;6184182;23;19920;-86
2022/03/31 10:04:29;;;;;;;;;;;;;;;;;;6208047;23;19920;-85
2022/03/31 10:06:55;;;;;;;;;;;;;;;;;;6184230;23;19966;-85
2022/03/31 10:09:22;;;;;;;;;;;;;;;;;;6183539;23;19924;-86
2022/03/31 10:11:52;;;;;;;;;;;;;;;;;;6209756;23;20054;-86
2022/03/31 10:14:20;;;;;;;;;;;;;;;;;;6184068;23;19920;-86
2022/03/31 10:16:50;;;;;;;;;;;;;;;;;;6210800;23;20288;-87
2022/03/31 10:19:19;;;;;;;;;;;;;;;;;;6179255;23;20290;-86
2022/03/31 10:21:46;;;;;;;;;;;;;;;;;;6179208;23;19986;-87
2022/03/31 10:26:58;;;;;;;;;;;;;;;;;;6179058;23;19926;-87
2022/03/31 10:29:25;;;;;;;;;;;;;;;;;;6178529;23;19916;-88
2022/03/31 10:31:54;;;;;;;;;;;;;;;;;;6179675;23;19947;-88
2022/03/31 10:34:20;;;;;;;;;;;;;;;;;;6178663;23;19983;-88
2022/03/31 10:36:48;;;;;;;;;;;;;;;;;;6179556;23;19920;-88
2022/03/31 10:39:15;;;;;;;;;;;;;;;;;;6179084;23;19958;-88
2022/03/31 10:41:56;;;;;;;;;;;;;;;;;;6148701;23;19956;-88
2022/03/31 10:44:24;;;;;;;;;;;;;;;;;;6123262;23;19924;-88
2022/03/31 10:47:10;;;;;;;;;;;;;;;;;;6148427;23;20345;-88
2022/03/31 10:49:37;;;;;;;;;;;;;;;;;;6123867;23;19916;-89
2022/03/31 10:52:05;;;;;;;;;;;;;;;;;;6124076;23;19925;-90
2022/03/31 10:54:33;;;;;;;;;;;;;;;;;;6123310;23;19921;-89
2022/03/31 10:57:01;;;;;;;;;;;;;;;;;;6124406;23;19928;-90
2022/03/31 10:59:47;;;;;;;;;;;;;;;;;;6157517;23;19952;-89
2022/03/31 11:02:14;;;;;;;;;;;;;;;;;;6123135;23;19924;-89
2022/03/31 11:05:01;;;;;;;;;;;;;;;;;;6095019;23;20253;-89
2022/03/31 11:07:38;;;;;;;;;;;;;;;;;;6120197;23;19956;-89
2022/03/31 11:10:05;;;;;;;;;;;;;;;;;;6095192;23;20449;-89
2022/03/31 11:12:33;;;;;;;;;;;;;;;;;;6115735;23;19955;-88
2022/03/31 11:15:00;;;;;;;;;;;;;;;;;;6180118;23;19920;-88
2022/03/31 11:17:28;;;;;;;;;;;;;;;;;;6179414;23;19920;-89
2022/03/31 11:19:55;;;;;;;;;;;;;;;;;;6154106;23;19979;-89
2022/03/31 11:22:22;;;;;;;;;;;;;;;;;;6130453;23;20277;-88
2022/03/31 11:24:54;;;;;;;;;;;;;;;;;;6155781;23;20361;-88
2022/03/31 11:27:21;;;;;;;;;;;;;;;;;;6129981;23;19920;-88
2022/03/31 11:29:49;;;;;;;;;;;;;;;;;;6128843;23;19920;-88
2022/03/31 11:32:16;;;;;;;;;;;;;;;;;;6129854;23;20348;-89
2022/03/31 11:34:43;;;;;;;;;;;;;;;;;;6130536;23;19924;-88
2022/03/31 11:37:10;;;;;;;;;;;;;;;;;;6130368;23;19920;-87
2022/03/31 11:39:37;;;;;;;;;;;;;;;;;;6154671;23;19923;-88
2022/03/31 11:42:04;;;;;;;;;;;;;;;;;;6153102;23;19932;-88
2022/03/31 11:44:32;;;;;;;;;;;;;;;;;;6155141;23;20358;-89
2022/03/31 11:47:00;;;;;;;;;;;;;;;;;;6180111;23;19943;-88
2022/03/31 11:49:27;;;;;;;;;;;;;;;;;;6130438;23;19920;-88
2022/03/31 11:51:54;;;;;;;;;;;;;;;;;;6155433;23;19920;-87
2022/03/31 11:54:22;;;;;;;;;;;;;;;;;;6133550;23;20012;-87
2022/03/31 11:56:49;;;;;;;;;;;;;;;;;;6205427;23;20325;-87
2022/03/31 11:59:16;;;;;;;;;;;;;;;;;;6181156;23;19922;-87
2022/03/31 12:01:48;;;;;;;;;;;;;;;;;;6173861;23;19924;-88
2022/03/31 12:04:18;;;;;;;;;;;;;;;;;;6181055;23;19939;-88
2022/03/31 12:06:45;;;;;;;;;;;;;;;;;;6180494;23;19920;-88
2022/03/31 12:09:12;;;;;;;;;;;;;;;;;;6180553;23;20369;-87
2022/03/31 12:11:38;;;;;;;;;;;;;;;;;;6181103;23;20031;-87
2022/03/31 12:14:06;;;;;;;;;;;;;;;;;;6179573;23;19928;-88
2022/03/31 12:16:33;;;;;;;;;;;;;;;;;;6179553;23;20343;-87
2022/03/31 12:19:00;;;;;;;;;;;;;;;;;;6181290;23;19975;-88
2022/03/31 12:21:28;;;;;;;;;;;;;;;;;;6179129;23;20042;-88
2022/03/31 12:23:55;;;;;;;;;;;;;;;;;;6180549;23;20292;-88
2022/03/31 12:26:23;;;;;;;;;;;;;;;;;;6179620;23;19950;-89
2022/03/31 12:28:50;;;;;;;;;;;;;;;;;;6180759;23;19939;-89
2022/03/31 12:31:16;;;;;;;;;;;;;;;;;;6180220;23;19916;-89
2022/03/31 12:33:44;;;;;;;;;;;;;;;;;;6157188;23;19931;-88
2022/03/31 12:36:11;;;;;;;;;;;;;;;;;;6180643;23;19923;-88
2022/03/31 12:38:38;;;;;;;;;;;;;;;;;;6180626;23;19967;-88
2022/03/31 12:41:05;;;;;;;;;;;;;;;;;;6179486;23;19995;-88
2022/03/31 12:43:32;;;;;;;;;;;;;;;;;;6180542;23;19920;-88
2022/03/31 12:45:59;;;;;;;;;;;;;;;;;;6180770;23;20241;-88
2022/03/31 12:48:29;;;;;;;;;;;;;;;;;;6180871;23;19916;-88
2022/03/31 12:50:58;;;;;;;;;;;;;;;;;;6180252;23;20352;-88
2022/03/31 12:53:26;;;;;;;;;;;;;;;;;;6180712;23;19920;-88
2022/03/31 12:55:53;;;;;;;;;;;;;;;;;;6180295;23;19916;-88
2022/03/31 12:58:20;;;;;;;;;;;;;;;;;;6179837;23;19916;-88
2022/03/31 13:00:47;;;;;;;;;;;;;;;;;;6179617;23;20345;-87
2022/03/31 13:03:30;;;;;;;;;;;;;;;;;;6148607;23;19920;-87
2022/03/31 13:05:57;;;;;;;;;;;;;;;;;;6124711;23;19928;-87
2022/03/31 13:08:24;;;;;;;;;;;;;;;;;;6125064;23;19924;-87
2022/03/31 13:10:50;;;;;;;;;;;;;;;;;;6124033;23;19916;-86
2022/03/31 13:13:18;;;;;;;;;;;;;;;;;;6124074;23;19924;-87
2022/03/31 13:15:44;;;;;;;;;;;;;;;;;;6121840;23;20317;-87
2022/03/31 13:18:30;;;;;;;;;;;;;;;;;;6148802;23;20297;-86
2022/03/31 13:20:56;;;;;;;;;;;;;;;;;;6121441;23;19967;-86
2022/03/31 13:23:23;;;;;;;;;;;;;;;;;;6123692;23;19924;-86
2022/03/31 13:25:52;;;;;;;;;;;;;;;;;;6123719;23;20273;-85
2022/03/31 13:28:19;;;;;;;;;;;;;;;;;;6147739;23;19920;-85
2022/03/31 13:30:45;;;;;;;;;;;;;;;;;;6147021;23;19920;-85
2022/03/31 13:33:11;;;;;;;;;;;;;;;;;;6123888;23;19920;-86
2022/03/31 13:35:56;;;;;;;;;;;;;;;;;;6167184;23;20249;-86
2022/03/31 13:38:24;;;;;;;;;;;;;;;;;;6121402;23;19924;-86
2022/03/31 13:40:52;;;;;;;;;;;;;;;;;;6148665;23;19923;-86
2022/03/31 13:43:19;;;;;;;;;;;;;;;;;;6123813;23;19951;-86
2022/03/31 13:45:46;;;;;;;;;;;;;;;;;;6120962;23;19940;-86
2022/03/31 13:48:31;;;;;;;;;;;;;;;;;;6150516;23;19918;-87
2022/03/31 13:51:00;;;;;;;;;;;;;;;;;;6124052;23;20274;-87
2022/03/31 13:56:11;;;;;;;;;;;;;;;;;;6123024;23;19924;-87
2022/03/31 14:01:23;;;;;;;;;;;;;;;;;;6124425;23;20151;-87
2022/03/31 14:03:49;;;;;;;;;;;;;;;;;;6148804;23;19967;-86
2022/03/31 14:06:30;;;;;;;;;;;;;;;;;;;;;
2022/03/31 14:09:06;;;;;;;;;;;;;;;;;;6150348;23;19932;-88
2022/03/31 14:11:34;;;;;;;;;;;;;;;;;;6124929;23;19951;-87
2022/03/31 14:14:01;;;;;;;;;;;;;;;;;;6123830;23;19967;-87
2022/03/31 14:16:29;;;;;;;;;;;;;;;;;;6123423;23;19924;-88
2022/03/31 14:18:56;;;;;;;;;;;;;;;;;;6122220;23;19917;-87
2022/03/31 14:21:22;;;;;;;;;;;;;;;;;;6119416;23;20637;-87
2022/03/31 14:23:50;;;;;;;;;;;;;;;;;;6144710;23;19924;-87
2022/03/31 14:26:18;;;;;;;;;;;;;;;;;;6149341;23;20259;-88
2022/03/31 14:28:45;;;;;;;;;;;;;;;;;;6149496;23;19935;-87
2022/03/31 14:31:12;;;;;;;;;;;;;;;;;;6123516;23;19920;-86
2022/03/31 14:33:41;;;;;;;;;;;;;;;;;;6099906;23;19925;-88
2022/03/31 14:36:08;;;;;;;;;;;;;;;;;;6124031;23;20405;-87
2022/03/31 14:38:36;;;;;;;;;;;;;;;;;;6124018;23;19925;-87
2022/03/31 14:41:13;;;;;;;;;;;;;;;;;;6125842;23;20350;-87
2022/03/31 14:44:07;;;;;;;;;;;;;;;;;;6061754;23;19993;-88
2022/03/31 14:46:35;;;;;;;;;;;;;;;;;;6036473;23;20008;-87
2022/03/31 14:49:02;;;;;;;;;;;;;;;;;;6061932;23;19921;-88
2022/03/31 14:51:46;;;;;;;;;;;;;;;;;;6061349;23;19977;-87
2022/03/31 14:54:28;;;;;;;;;;;;;;;;;;6055919;23;19970;-87
2022/03/31 14:56:54;;;;;;;;;;;;;;;;;;6010581;23;19921;-87
2022/03/31 14:59:22;;;;;;;;;;;;;;;;;;6034547;23;19917;-87
2022/03/31 15:01:48;;;;;;;;;;;;;;;;;;6011644;23;19921;-89
2022/03/31 15:04:33;;;;;;;;;;;;;;;;;;6058729;23;19958;-87
2022/03/31 15:07:02;;;;;;;;;;;;;;;;;;6011407;23;19922;-87
2022/03/31 15:15:07;;;;;;;;;;;;;;;;;;6085374;23;19920;-87
2022/03/31 15:17:35;;;;;;;;;;;;;;;;;;6117415;23;19951;-87
2022/03/31 15:20:02;;;;;;;;;;;;;;;;;;6092538;23;20402;-87
2022/03/31 15:22:43;;;;;;;;;;;;;;;;;;6038249;23;19955;-86
2022/03/31 15:25:10;;;;;;;;;;;;;;;;;;6059300;23;20260;-86
2022/03/31 15:27:38;;;;;;;;;;;;;;;;;;6035092;23;20415;-87
2022/03/31 15:30:04;;;;;;;;;;;;;;;;;;6083662;23;19988;-88
2022/03/31 15:32:37;;;;;;;;;;;;;;;;;;6092502;23;19961;-87
2022/03/31 15:35:13;;;;;;;;;;;;;;;;;;6115741;23;19929;-87
2022/03/31 15:37:59;;;;;;;;;;;;;;;;;;6086198;23;20231;-87
2022/03/31 15:40:27;;;;;;;;;;;;;;;;;;6062910;23;20339;-87
2022/03/31 15:42:54;;;;;;;;;;;;;;;;;;6064459;23;20062;-86
2022/03/31 15:45:22;;;;;;;;;;;;;;;;;;6060560;23;19917;-86
2022/03/31 15:47:49;;;;;;;;;;;;;;;;;;6063189;23;19996;-87
2022/03/31 15:50:17;;;;;;;;;;;;;;;;;;6061612;23;20035;-87
2022/03/31 15:52:44;;;;;;;;;;;;;;;;;;6061829;23;19961;-87
2022/03/31 15:55:13;;;;;;;;;;;;;;;;;;6060754;23;19973;-86
2022/03/31 15:57:49;;;;;;;;;;;;;;;;;;6060286;23;19921;-87
2022/03/31 16:00:17;;;;;;;;;;;;;;;;;;6083767;23;19988;-86
2022/03/31 16:03:01;;;;;;;;;;;;;;;;;;6146048;23;19928;-86
2022/03/31 16:05:28;;;;;;;;;;;;;;;;;;6119441;23;19920;-86
2022/03/31 16:07:56;;;;;;;;;;;;;;;;;;6096596;23;20770;-86
2022/03/31 16:10:22;;;;;;;;;;;;;;;;;;6122094;23;19983;-86
2022/03/31 16:12:51;;;;;;;;;;;;;;;;;;6097555;23;19975;-88
2022/03/31 16:15:19;;;;;;;;;;;;;;;;;;6120624;23;19921;-87
2022/03/31 16:17:50;;;;;;;;;;;;;;;;;;6121826;23;20334;-88
2022/03/31 16:20:20;;;;;;;;;;;;;;;;;;6127864;23;19994;-87
2022/03/31 16:22:47;;;;;;;;;;;;;;;;;;6145371;23;19921;-87
2022/03/31 16:25:14;;;;;;;;;;;;;;;;;;6095897;23;19921;-88
2022/03/31 16:27:41;;;;;;;;;;;;;;;;;;6096506;23;20656;-88
2022/03/31 16:30:09;;;;;;;;;;;;;;;;;;6096997;23;19955;-88
2022/03/31 16:32:36;;;;;;;;;;;;;;;;;;6095239;23;19920;-87
2022/03/31 16:35:04;;;;;;;;;;;;;;;;;;6119321;23;20707;-87
2022/03/31 16:37:31;;;;;;;;;;;;;;;;;;6089053;23;20124;-86
2022/03/31 16:39:59;;;;;;;;;;;;;;;;;;6118993;23;20406;-86
2022/03/31 16:42:29;;;;;;;;;;;;;;;;;;6120810;23;19920;-86
2022/03/31 16:44:56;;;;;;;;;;;;;;;;;;6119491;23;19964;-86
2022/03/31 16:47:24;;;;;;;;;;;;;;;;;;6093848;23;19925;-88
2022/03/31 16:49:54;;;;;;;;;;;;;;;;;;6096490;23;19932;-87
2022/03/31 16:52:21;;;;;;;;;;;;;;;;;;6118375;23;19979;-87
2022/03/31 16:54:47;;;;;;;;;;;;;;;;;;6151370;23;19931;-87
2022/03/31 16:57:14;;;;;;;;;;;;;;;;;;6179387;23;19920;-87
2022/03/31 16:59:41;;;;;;;;;;;;;;;;;;6181493;23;19930;-87
2022/03/31 17:02:09;;;;;;;;;;;;;;;;;;6180078;23;19970;-87
2022/03/31 17:04:46;;;;;;;;;;;;;;;;;;6205324;23;20003;-87
2022/03/31 17:07:13;;;;;;;;;;;;;;;;;;6180079;23;19920;-87
2022/03/31 17:10:00;;;;;;;;;;;;;;;;;;6206226;23;19918;-88
2022/03/31 17:12:27;;;;;;;;;;;;;;;;;;6182469;23;20029;-87
2022/03/31 17:14:54;;;;;;;;;;;;;;;;;;6179848;23;19924;-88